Time;durP1;ratioP1;P1;durP2;ratioP2;P2;SDS_P1;SDS_P2;PMS_P1;PMS_P2;Temp;Humidity;BMP_temperature;BMP_pressure;BME280_temperature;BME280_humidity;BME280_pressure;Samples;Min_cycle;Max_cycle;Signal;HPM_P1;HPM_P2
2021/12/28 00:01:27;;;;;;;18.17;11.27;;;;;;;;;;5040716;28;20513;-77
2021/12/28 00:03:53;;;;;;;17.83;10.88;;;;;;;;;;5032440;28;20029;-77
2021/12/28 00:06:19;;;;;;;16.08;9.98;;;;;;;;;;5029701;28;20025;-77
2021/12/28 00:08:45;;;;;;;16.90;9.98;;;;;;;;;;5032132;28;20495;-77
2021/12/28 00:11:12;;;;;;;19.40;10.30;;;;;;;;;;5031717;28;20025;-77
2021/12/28 00:13:38;;;;;;;16.52;9.65;;;;;;;;;;5032649;28;20025;-77
2021/12/28 00:18:32;;;;;;;19.17;9.70;;;;;;;;;;5031577;28;20034;-77
2021/12/28 00:21:00;;;;;;;15.25;9.95;;;;;;;;;;5032274;28;20403;-77
2021/12/28 00:23:33;;;;;;;19.15;11.27;;;;;;;;;;5030960;28;20024;-77
2021/12/28 00:25:58;;;;;;;;;;;;;;;;;;5031982;28;20017;-78
2021/12/28 00:28:25;;;;;;;17.30;9.27;;;;;;;;;;5030933;28;19909;-77
2021/12/28 00:30:52;;;;;;;17.02;10.00;;;;;;;;;;5030934;28;20053;-77
2021/12/28 00:33:19;;;;;;;16.88;10.35;;;;;;;;;;5032497;28;20033;-77
2021/12/28 00:35:45;;;;;;;17.92;10.80;;;;;;;;;;5031803;28;20021;-77
2021/12/28 00:38:18;;;;;;;18.65;9.95;;;;;;;;;;5032038;28;20030;-77
2021/12/28 00:40:44;;;;;;;;;;;;;;;;;;5031480;28;20380;-77
2021/12/28 00:43:10;;;;;;;16.50;10.35;;;;;;;;;;5031724;28;19916;-77
2021/12/28 00:45:36;;;;;;;16.90;10.38;;;;;;;;;;5031552;28;20033;-77
2021/12/28 00:48:02;;;;;;;19.30;10.88;;;;;;;;;;5031664;28;20064;-77
2021/12/28 00:50:28;;;;;;;18.67;10.18;;;;;;;;;;5032358;28;20037;-77
2021/12/28 00:52:55;;;;;;;19.02;10.43;;;;;;;;;;5032516;28;20455;-77
2021/12/28 00:55:22;;;;;;;18.83;11.93;;;;;;;;;;5032885;28;20036;-77
2021/12/28 00:57:48;;;;;;;19.70;10.93;;;;;;;;;;5032315;28;20061;-77
2021/12/28 01:00:25;;;;;;;18.65;10.82;;;;;;;;;;5031254;28;20034;-77
2021/12/28 01:02:51;;;;;;;19.75;10.43;;;;;;;;;;5032277;28;20108;-77
2021/12/28 01:05:17;;;;;;;17.25;10.48;;;;;;;;;;5031756;28;20026;-77
2021/12/28 01:07:43;;;;;;;18.25;11.43;;;;;;;;;;5028876;28;20098;-77
2021/12/28 01:10:13;;;;;;;18.63;11.75;;;;;;;;;;5032194;28;20499;-77
2021/12/28 01:12:39;;;;;;;17.08;10.45;;;;;;;;;;5030433;28;20133;-76
2021/12/28 01:15:06;;;;;;;17.15;10.40;;;;;;;;;;5032423;28;20030;-77
2021/12/28 01:17:33;;;;;;;19.50;10.98;;;;;;;;;;5031162;28;20067;-77
2021/12/28 01:19:59;;;;;;;17.40;10.63;;;;;;;;;;5031307;28;20111;-77
2021/12/28 01:22:25;;;;;;;17.67;10.63;;;;;;;;;;5032515;28;20108;-76
2021/12/28 01:24:51;;;;;;;18.33;10.98;;;;;;;;;;5032414;28;20047;-77
2021/12/28 01:27:17;;;;;;;20.00;11.27;;;;;;;;;;5031980;28;20026;-77
2021/12/28 01:29:43;;;;;;;18.95;10.32;;;;;;;;;;5032155;28;20029;-78
2021/12/28 01:32:10;;;;;;;19.42;11.43;;;;;;;;;;5031158;28;20048;-76
2021/12/28 01:34:36;;;;;;;18.95;11.10;;;;;;;;;;5031717;28;20026;-76
2021/12/28 01:37:02;;;;;;;19.17;9.98;;;;;;;;;;5032499;28;20037;-76
2021/12/28 01:39:28;;;;;;;16.75;10.93;;;;;;;;;;5031312;28;20034;-76
2021/12/28 01:41:54;;;;;;;17.10;10.32;;;;;;;;;;5031735;28;20053;-77
2021/12/28 01:44:21;;;;;;;20.50;11.15;;;;;;;;;;5030943;28;20045;-77
2021/12/28 01:46:47;;;;;;;18.42;11.15;;;;;;;;;;5033964;28;20021;-76
2021/12/28 01:49:13;;;;;;;16.83;10.88;;;;;;;;;;5035108;28;20041;-76
2021/12/28 01:51:39;;;;;;;16.88;10.30;;;;;;;;;;5035753;28;20661;-77
2021/12/28 01:54:06;;;;;;;16.05;10.63;;;;;;;;;;5033756;28;20498;-76
2021/12/28 01:56:40;;;;;;;17.17;10.00;;;;;;;;;;5034937;28;20022;-77
2021/12/28 01:59:07;;;;;;;17.42;9.77;;;;;;;;;;5035631;28;20123;-76
2021/12/28 02:01:34;;;;;;;16.13;9.60;;;;;;;;;;5035638;28;20030;-77
2021/12/28 02:04:01;;;;;;;17.25;9.88;;;;;;;;;;5035658;28;20360;-76
2021/12/28 02:06:28;;;;;;;16.58;10.32;;;;;;;;;;5035300;28;20393;-77
2021/12/28 02:08:54;;;;;;;18.58;10.52;;;;;;;;;;5036013;28;20307;-77
2021/12/28 02:11:20;;;;;;;15.25;10.73;;;;;;;;;;5035624;28;20030;-76
2021/12/28 02:13:46;;;;;;;20.58;11.30;;;;;;;;;;5036612;28;20084;-77
2021/12/28 02:16:12;;;;;;;20.13;10.85;;;;;;;;;;5035749;28;20021;-76
2021/12/28 02:18:38;;;;;;;18.48;10.52;;;;;;;;;;5033787;28;20021;-77
2021/12/28 02:21:06;;;;;;;17.98;11.00;;;;;;;;;;5034250;28;20028;-76
2021/12/28 02:23:32;;;;;;;17.67;11.13;;;;;;;;;;5034116;28;20056;-76
2021/12/28 02:25:58;;;;;;;19.63;10.77;;;;;;;;;;5034199;28;20116;-76
2021/12/28 02:28:24;;;;;;;15.98;9.50;;;;;;;;;;5034061;28;20352;-76
2021/12/28 02:30:52;;;;;;;16.45;9.35;;;;;;;;;;5035297;28;20392;-77
2021/12/28 02:33:20;;;;;;;17.98;10.32;;;;;;;;;;5032884;28;20037;-76
2021/12/28 02:35:48;;;;;;;18.92;10.88;;;;;;;;;;5034378;28;20037;-77
2021/12/28 02:38:14;;;;;;;20.02;11.18;;;;;;;;;;5033917;28;20032;-76
2021/12/28 02:40:45;;;;;;;17.40;10.38;;;;;;;;;;5034392;28;20091;-76
2021/12/28 02:43:14;;;;;;;17.50;10.48;;;;;;;;;;5031741;28;20026;-76
2021/12/28 02:45:47;;;;;;;19.38;10.80;;;;;;;;;;5034109;28;20521;-76
2021/12/28 02:48:13;;;;;;;19.33;11.48;;;;;;;;;;5034084;28;20030;-77
2021/12/28 02:50:42;;;;;;;21.13;9.88;;;;;;;;;;5034460;28;20021;-76
2021/12/28 02:53:08;;;;;;;16.40;10.35;;;;;;;;;;5034167;28;20033;-76
2021/12/28 02:55:35;;;;;;;18.48;10.85;;;;;;;;;;5034108;28;20056;-76
2021/12/28 02:58:03;;;;;;;16.40;10.43;;;;;;;;;;5034294;28;20030;-76
2021/12/28 03:00:29;;;;;;;20.00;11.02;;;;;;;;;;5033999;28;20353;-76
2021/12/28 03:02:55;;;;;;;16.67;9.90;;;;;;;;;;5034061;28;20084;-76
2021/12/28 03:05:22;;;;;;;16.85;9.90;;;;;;;;;;5034474;28;20028;-76
2021/12/28 03:07:48;;;;;;;18.73;11.95;;;;;;;;;;5034268;28;20026;-77
2021/12/28 03:10:14;;;;;;;18.95;10.85;;;;;;;;;;5034273;28;20075;-77
2021/12/28 03:12:40;;;;;;;17.45;11.30;;;;;;;;;;5033278;28;20100;-77
2021/12/28 03:15:06;;;;;;;17.20;10.75;;;;;;;;;;5033417;28;20125;-76
2021/12/28 03:17:32;;;;;;;19.08;10.73;;;;;;;;;;5033853;28;20051;-76
2021/12/28 03:19:58;;;;;;;18.55;10.35;;;;;;;;;;5033822;28;20539;-76
2021/12/28 03:22:24;;;;;;;19.00;11.00;;;;;;;;;;5033647;28;20018;-76
2021/12/28 03:24:50;;;;;;;17.55;10.35;;;;;;;;;;5033265;28;20487;-76
2021/12/28 03:27:16;;;;;;;19.02;10.25;;;;;;;;;;5033709;28;20032;-77
2021/12/28 03:29:42;;;;;;;20.70;10.93;;;;;;;;;;5031802;28;20040;-76
2021/12/28 03:32:08;;;;;;;20.38;10.63;;;;;;;;;;5033491;28;20411;-76
2021/12/28 03:34:34;;;;;;;17.52;10.18;;;;;;;;;;5032704;28;20044;-76
2021/12/28 03:37:00;;;;;;;18.67;10.63;;;;;;;;;;5033347;28;20034;-76
2021/12/28 03:39:26;;;;;;;19.02;11.02;;;;;;;;;;5032603;28;20037;-76
2021/12/28 03:41:52;;;;;;;17.23;11.35;;;;;;;;;;5031957;28;20048;-76
2021/12/28 03:44:18;;;;;;;17.30;9.98;;;;;;;;;;5033528;28;20099;-76
2021/12/28 03:46:47;;;;;;;16.67;9.75;;;;;;;;;;5032611;28;20113;-76
2021/12/28 03:49:13;;;;;;;17.75;10.75;;;;;;;;;;5031723;28;20514;-76
2021/12/28 03:51:39;;;;;;;17.27;11.15;;;;;;;;;;5030025;28;20029;-76
2021/12/28 03:54:05;;;;;;;18.55;10.85;;;;;;;;;;5031732;28;20022;-76
2021/12/28 03:56:31;;;;;;;18.58;10.90;;;;;;;;;;5030888;28;20403;-76
2021/12/28 03:58:57;;;;;;;20.50;9.95;;;;;;;;;;5031838;28;20037;-76
2021/12/28 04:01:24;;;;;;;18.48;10.82;;;;;;;;;;5031634;28;20038;-76
2021/12/28 04:03:50;;;;;;;18.65;10.82;;;;;;;;;;5031459;28;20037;-76
2021/12/28 04:06:19;;;;;;;17.65;9.98;;;;;;;;;;5031330;28;20022;-76
2021/12/28 04:08:45;;;;;;;16.42;9.45;;;;;;;;;;5031404;28;20014;-76
2021/12/28 04:13:40;;;;;;;18.88;10.65;;;;;;;;;;5031664;28;20037;-76
2021/12/28 04:16:06;;;;;;;17.92;10.07;;;;;;;;;;5031752;28;20079;-76
2021/12/28 04:18:32;;;;;;;18.05;10.90;;;;;;;;;;5030256;28;20025;-77
2021/12/28 04:20:58;;;;;;;17.85;11.35;;;;;;;;;;5031578;28;20035;-77
2021/12/28 04:23:24;;;;;;;17.98;10.10;;;;;;;;;;5031692;28;20048;-77
2021/12/28 04:25:50;;;;;;;21.63;11.52;;;;;;;;;;5038081;28;20514;-77
2021/12/28 04:28:16;;;;;;;24.25;11.20;;;;;;;;;;5038702;28;20022;-77
2021/12/28 04:30:42;;;;;;;17.77;10.48;;;;;;;;;;5035482;28;20061;-77
2021/12/28 04:33:08;;;;;;;17.02;10.60;;;;;;;;;;5032388;28;20063;-77
2021/12/28 04:35:34;;;;;;;20.25;11.40;;;;;;;;;;5031721;28;20036;-77
2021/12/28 04:38:01;;;;;;;19.02;10.43;;;;;;;;;;5030292;28;20399;-77
2021/12/28 04:40:31;;;;;;;20.13;11.38;;;;;;;;;;5031475;28;20037;-77
2021/12/28 04:42:57;;;;;;;18.30;10.95;;;;;;;;;;5031760;28;20025;-76
2021/12/28 04:45:23;;;;;;;17.17;10.30;;;;;;;;;;5030022;28;20021;-76
2021/12/28 04:47:49;;;;;;;17.88;11.43;;;;;;;;;;5029602;28;20068;-76
2021/12/28 04:50:15;;;;;;;19.08;11.68;;;;;;;;;;5030923;28;20094;-76
2021/12/28 04:52:42;;;;;;;18.98;10.48;;;;;;;;;;5032211;28;20037;-77
2021/12/28 04:55:12;;;;;;;21.00;11.00;;;;;;;;;;5031829;28;20534;-76
2021/12/28 04:57:39;;;;;;;20.88;10.93;;;;;;;;;;5031134;28;20166;-76
2021/12/28 05:00:08;;;;;;;21.00;12.43;;;;;;;;;;5030793;28;20037;-76
2021/12/28 05:02:34;;;;;;;20.40;11.57;;;;;;;;;;5031047;28;20504;-77
2021/12/28 05:05:00;;;;;;;19.17;11.57;;;;;;;;;;5030276;28;20048;-76
2021/12/28 05:07:27;;;;;;;20.17;11.70;;;;;;;;;;5030535;28;20048;-76
2021/12/28 05:09:57;;;;;;;20.00;10.93;;;;;;;;;;5030448;28;20492;-76
2021/12/28 05:12:23;;;;;;;23.08;12.07;;;;;;;;;;5029671;28;20032;-76
2021/12/28 05:14:49;;;;;;;17.67;11.07;;;;;;;;;;5029573;28;20037;-76
2021/12/28 05:17:15;;;;;;;20.40;10.85;;;;;;;;;;5030916;28;20036;-76
2021/12/28 05:19:42;;;;;;;19.05;12.02;;;;;;;;;;5029183;28;20037;-76
2021/12/28 05:22:08;;;;;;;22.38;11.90;;;;;;;;;;5030557;28;20112;-76
2021/12/28 05:24:35;;;;;;;20.35;12.38;;;;;;;;;;5030609;28;20400;-78
2021/12/28 05:27:01;;;;;;;21.80;12.00;;;;;;;;;;5030158;28;20455;-76
2021/12/28 05:29:27;;;;;;;23.45;12.73;;;;;;;;;;5030741;28;20511;-77
2021/12/28 05:31:53;;;;;;;21.05;12.20;;;;;;;;;;5029815;28;20073;-76
2021/12/28 05:34:19;;;;;;;22.23;12.43;;;;;;;;;;5030863;28;20133;-76
2021/12/28 05:36:46;;;;;;;22.23;12.25;;;;;;;;;;5031203;28;20021;-76
2021/12/28 05:39:12;;;;;;;21.13;12.70;;;;;;;;;;5029112;28;20033;-77
2021/12/28 05:41:38;;;;;;;25.17;12.95;;;;;;;;;;5030610;28;20149;-76
2021/12/28 05:44:05;;;;;;;22.42;11.80;;;;;;;;;;5030559;28;20029;-76
2021/12/28 05:46:31;;;;;;;26.98;14.52;;;;;;;;;;5031112;28;20100;-76
2021/12/28 05:48:57;;;;;;;24.98;13.23;;;;;;;;;;5029477;28;20075;-77
2021/12/28 05:51:23;;;;;;;28.83;14.48;;;;;;;;;;5030656;28;20039;-78
2021/12/28 05:53:49;;;;;;;27.30;13.32;;;;;;;;;;5030927;28;20141;-76
2021/12/28 05:56:15;;;;;;;25.88;13.93;;;;;;;;;;5030686;28;20502;-76
2021/12/28 05:58:41;;;;;;;28.52;14.82;;;;;;;;;;5028696;28;21016;-76
2021/12/28 06:01:08;;;;;;;29.83;14.93;;;;;;;;;;5038704;28;20031;-77
2021/12/28 06:03:34;;;;;;;28.65;14.98;;;;;;;;;;5032929;28;20033;-76
2021/12/28 06:06:00;;;;;;;31.95;16.23;;;;;;;;;;5030288;28;20026;-77
2021/12/28 06:08:26;;;;;;;29.92;17.33;;;;;;;;;;5030816;28;20083;-77
2021/12/28 06:10:53;;;;;;;29.40;15.00;;;;;;;;;;5031203;28;20081;-76
2021/12/28 06:13:19;;;;;;;30.05;15.32;;;;;;;;;;5031396;28;20484;-76
2021/12/28 06:15:45;;;;;;;31.83;15.57;;;;;;;;;;5031320;28;20025;-78
2021/12/28 06:18:11;;;;;;;30.17;15.73;;;;;;;;;;5030763;28;20364;-77
2021/12/28 06:20:37;;;;;;;32.15;15.95;;;;;;;;;;5031033;28;20395;-77
2021/12/28 06:23:03;;;;;;;37.20;17.48;;;;;;;;;;5032198;28;20025;-77
2021/12/28 06:25:29;;;;;;;30.55;14.93;;;;;;;;;;5030388;28;20365;-76
2021/12/28 06:27:55;;;;;;;35.08;15.75;;;;;;;;;;5028926;28;20587;-76
2021/12/28 06:30:21;;;;;;;32.97;18.05;;;;;;;;;;5023280;28;20037;-77
2021/12/28 06:32:47;;;;;;;36.67;16.80;;;;;;;;;;5033816;28;20049;-76
2021/12/28 06:35:13;;;;;;;35.45;17.17;;;;;;;;;;5033724;28;20092;-76
2021/12/28 06:37:39;;;;;;;34.30;17.35;;;;;;;;;;5020986;28;20105;-76
2021/12/28 06:40:06;;;;;;;36.83;17.58;;;;;;;;;;5034881;28;20037;-76
2021/12/28 06:42:32;;;;;;;31.83;17.33;;;;;;;;;;5031903;28;20025;-76
2021/12/28 06:44:59;;;;;;;35.50;17.83;;;;;;;;;;5033884;28;20041;-76
2021/12/28 06:47:25;;;;;;;33.15;17.02;;;;;;;;;;5032692;28;20048;-76
2021/12/28 06:49:51;;;;;;;38.85;17.50;;;;;;;;;;5029676;28;20042;-76
2021/12/28 06:52:17;;;;;;;36.30;17.77;;;;;;;;;;5034523;28;20052;-76
2021/12/28 06:54:44;;;;;;;35.28;16.63;;;;;;;;;;5031371;28;20543;-76
2021/12/28 06:57:11;;;;;;;39.67;17.90;;;;;;;;;;5034987;28;20064;-76
2021/12/28 06:59:38;;;;;;;39.55;19.58;;;;;;;;;;5034782;28;20033;-76
2021/12/28 07:02:04;;;;;;;40.70;19.63;;;;;;;;;;5034708;28;20017;-76
2021/12/28 07:04:31;;;;;;;44.10;20.17;;;;;;;;;;5019880;28;20064;-77
2021/12/28 07:06:57;;;;;;;39.60;20.30;;;;;;;;;;5031205;28;20025;-77
2021/12/28 07:09:23;;;;;;;38.10;18.42;;;;;;;;;;5033216;28;20028;-76
2021/12/28 07:11:49;;;;;;;45.63;20.83;;;;;;;;;;5033640;28;20083;-76
2021/12/28 07:14:15;;;;;;;48.53;20.00;;;;;;;;;;5032188;28;20175;-76
2021/12/28 07:16:41;;;;;;;44.97;19.80;;;;;;;;;;5032154;28;20024;-76
2021/12/28 07:19:10;;;;;;;39.28;17.83;;;;;;;;;;5029785;28;20045;-76
2021/12/28 07:21:37;;;;;;;43.97;19.75;;;;;;;;;;5031651;28;20056;-76
2021/12/28 07:24:03;;;;;;;43.22;19.17;;;;;;;;;;5026236;28;20050;-76
2021/12/28 07:26:29;;;;;;;44.05;21.55;;;;;;;;;;5030143;28;20049;-76
2021/12/28 07:28:55;;;;;;;42.33;20.70;;;;;;;;;;5035836;28;20507;-77
2021/12/28 07:31:21;;;;;;;42.90;20.52;;;;;;;;;;5035895;28;20069;-77
2021/12/28 07:33:47;;;;;;;45.58;19.88;;;;;;;;;;5038298;28;20061;-77
2021/12/28 07:36:13;;;;;;;46.90;20.15;;;;;;;;;;5037993;28;20017;-76
2021/12/28 07:38:39;;;;;;;43.42;19.45;;;;;;;;;;5037309;28;20025;-76
2021/12/28 07:41:05;;;;;;;43.60;18.50;;;;;;;;;;5035641;28;20049;-76
2021/12/28 07:43:31;;;;;;;43.78;19.25;;;;;;;;;;5033476;28;20052;-76
2021/12/28 07:45:57;;;;;;;48.95;19.80;;;;;;;;;;5032478;28;20021;-77
2021/12/28 07:48:24;;;;;;;43.15;18.25;;;;;;;;;;5029623;28;20352;-76
2021/12/28 07:50:50;;;;;;;41.67;18.95;;;;;;;;;;5032796;28;20026;-76
2021/12/28 07:53:16;;;;;;;47.00;20.40;;;;;;;;;;5031534;28;20088;-77
2021/12/28 07:55:42;;;;;;;51.92;20.67;;;;;;;;;;5033016;28;20036;-77
2021/12/28 07:58:08;;;;;;;48.38;22.92;;;;;;;;;;5032661;28;20029;-77
2021/12/28 08:00:34;;;;;;;46.50;22.48;;;;;;;;;;5031591;28;20041;-76
2021/12/28 08:03:03;;;;;;;46.42;19.10;;;;;;;;;;5030734;28;20036;-76
2021/12/28 08:05:30;;;;;;;39.47;17.58;;;;;;;;;;5016273;28;20492;-76
2021/12/28 08:07:56;;;;;;;37.35;17.45;;;;;;;;;;5032672;28;20097;-77
2021/12/28 08:10:22;;;;;;;43.15;17.30;;;;;;;;;;5032403;28;20045;-76
2021/12/28 08:12:49;;;;;;;42.10;18.52;;;;;;;;;;5029980;28;20033;-76
2021/12/28 08:15:16;;;;;;;44.28;19.30;;;;;;;;;;5032613;28;20029;-76
2021/12/28 08:17:42;;;;;;;43.30;20.60;;;;;;;;;;5031369;28;20087;-76
2021/12/28 08:20:10;;;;;;;45.92;17.55;;;;;;;;;;5032153;28;20396;-77
2021/12/28 08:22:36;;;;;;;44.00;18.63;;;;;;;;;;5031971;28;20084;-77
2021/12/28 08:25:03;;;;;;;44.85;21.13;;;;;;;;;;5032695;28;20436;-77
2021/12/28 08:27:29;;;;;;;38.72;18.88;;;;;;;;;;5033070;28;20045;-77
2021/12/28 08:29:55;;;;;;;39.85;18.67;;;;;;;;;;5032442;28;20061;-76
2021/12/28 08:32:22;;;;;;;35.70;17.23;;;;;;;;;;5032994;28;20075;-76
2021/12/28 08:34:48;;;;;;;37.20;20.48;;;;;;;;;;5030254;28;20032;-76
2021/12/28 08:37:14;;;;;;;35.08;16.02;;;;;;;;;;5033004;28;20434;-76
2021/12/28 08:39:40;;;;;;;38.63;15.65;;;;;;;;;;5035267;28;20121;-77
2021/12/28 08:42:06;;;;;;;36.83;15.02;;;;;;;;;;5035580;28;20045;-77
2021/12/28 08:44:32;;;;;;;40.10;16.85;;;;;;;;;;5035099;28;20018;-78
2021/12/28 08:46:58;;;;;;;42.63;17.52;;;;;;;;;;5035021;28;20456;-77
2021/12/28 08:49:26;;;;;;;35.42;17.33;;;;;;;;;;5032601;28;20601;-77
2021/12/28 08:51:52;;;;;;;40.63;16.08;;;;;;;;;;5033215;28;20025;-77
2021/12/28 08:54:18;;;;;;;36.25;17.20;;;;;;;;;;5033562;28;20025;-78
2021/12/28 08:56:45;;;;;;;35.40;15.02;;;;;;;;;;5035909;28;20403;-77
2021/12/28 08:59:12;;;;;;;35.83;15.52;;;;;;;;;;5035595;28;20044;-78
2021/12/28 09:01:38;;;;;;;35.55;17.02;;;;;;;;;;5031127;28;20436;-77
2021/12/28 09:04:04;;;;;;;36.55;18.58;;;;;;;;;;5033698;28;20029;-77
2021/12/28 09:06:30;;;;;;;35.70;16.83;;;;;;;;;;5041350;28;20006;-77
2021/12/28 09:08:56;;;;;;;40.42;17.05;;;;;;;;;;5047412;28;20037;-78
2021/12/28 09:11:22;;;;;;;35.70;18.25;;;;;;;;;;5046341;28;20045;-77
2021/12/28 09:13:48;;;;;;;36.30;16.25;;;;;;;;;;5033345;28;20320;-76
2021/12/28 09:16:14;;;;;;;45.28;17.63;;;;;;;;;;5033438;28;20029;-77
2021/12/28 09:18:41;;;;;;;46.42;18.30;;;;;;;;;;5033578;28;20036;-77
2021/12/28 09:21:07;;;;;;;38.72;16.67;;;;;;;;;;5032623;28;20017;-77
2021/12/28 09:23:33;;;;;;;39.95;16.75;;;;;;;;;;5032724;28;20025;-78
2021/12/28 09:25:59;;;;;;;40.17;18.23;;;;;;;;;;5032176;28;20061;-77
2021/12/28 09:28:25;;;;;;;41.60;17.13;;;;;;;;;;5033524;28;20025;-77
2021/12/28 09:30:51;;;;;;;39.38;15.82;;;;;;;;;;5032573;28;20057;-77
2021/12/28 09:33:19;;;;;;;39.22;18.00;;;;;;;;;;5034072;28;20045;-79
2021/12/28 09:35:45;;;;;;;38.60;16.10;;;;;;;;;;5031001;28;20049;-78
2021/12/28 09:38:11;;;;;;;33.40;14.73;;;;;;;;;;5048696;28;20111;-78
2021/12/28 09:40:37;;;;;;;39.15;15.38;;;;;;;;;;5049847;28;20455;-77
2021/12/28 09:43:07;;;;;;;37.97;15.60;;;;;;;;;;5043010;28;20041;-78
2021/12/28 09:45:34;;;;;;;36.90;15.25;;;;;;;;;;5025816;28;20037;-77
2021/12/28 09:48:00;;;;;;;31.33;16.13;;;;;;;;;;5016969;28;20033;-78
2021/12/28 09:50:27;;;;;;;32.50;15.07;;;;;;;;;;5033070;28;20037;-77
2021/12/28 09:52:53;;;;;;;35.03;15.48;;;;;;;;;;5031922;28;20407;-77
2021/12/28 09:55:21;;;;;;;38.53;18.75;;;;;;;;;;5029849;28;20090;-77
2021/12/28 09:57:48;;;;;;;32.65;15.00;;;;;;;;;;5029999;28;20105;-78
2021/12/28 10:00:14;;;;;;;33.55;13.75;;;;;;;;;;5031624;28;20033;-78
2021/12/28 10:02:40;;;;;;;32.63;15.68;;;;;;;;;;5034940;28;20022;-78
2021/12/28 10:05:08;;;;;;;30.63;14.93;;;;;;;;;;5033205;28;20041;-78
2021/12/28 10:07:38;;;;;;;35.25;16.15;;;;;;;;;;5034907;28;20028;-77
2021/12/28 10:10:06;;;;;;;29.00;13.90;;;;;;;;;;5036347;28;20033;-77
2021/12/28 10:12:39;;;;;;;34.35;14.75;;;;;;;;;;5038726;28;20029;-78
2021/12/28 10:15:09;;;;;;;31.48;14.75;;;;;;;;;;5032079;28;20057;-78
2021/12/28 10:17:35;;;;;;;33.15;14.95;;;;;;;;;;5037415;28;20072;-78
2021/12/28 10:20:04;;;;;;;26.98;12.90;;;;;;;;;;5036978;28;20045;-77
2021/12/28 10:22:33;;;;;;;25.15;13.45;;;;;;;;;;5037382;28;20029;-79
2021/12/28 10:25:01;;;;;;;32.50;13.82;;;;;;;;;;5034607;28;20498;-77
2021/12/28 10:27:28;;;;;;;28.13;14.27;;;;;;;;;;5035152;28;20032;-77
2021/12/28 10:29:55;;;;;;;31.73;14.55;;;;;;;;;;5034781;28;20513;-77
2021/12/28 10:32:27;;;;;;;34.17;14.80;;;;;;;;;;5032510;28;20495;-77
2021/12/28 10:34:53;;;;;;;;;;;;;;;;;;5034598;28;20526;-77
2021/12/28 10:37:21;;;;;;;30.23;12.93;;;;;;;;;;5034662;28;20341;-78
2021/12/28 10:39:48;;;;;;;29.10;12.93;;;;;;;;;;5033546;28;20486;-78
2021/12/28 10:42:33;;;;;;;27.10;11.60;;;;;;;;;;5025604;28;20101;-77
2021/12/28 10:45:00;;;;;;;23.90;11.73;;;;;;;;;;5036156;28;20029;-77
2021/12/28 10:47:27;;;;;;;29.35;13.60;;;;;;;;;;5035234;28;20013;-77
2021/12/28 10:49:53;;;;;;;29.48;14.18;;;;;;;;;;5035665;28;20036;-77
2021/12/28 10:52:29;;;;;;;31.67;13.18;;;;;;;;;;5034452;28;20103;-77
2021/12/28 10:55:16;;;;;;;26.73;13.38;;;;;;;;;;5031358;28;20135;-77
2021/12/28 10:57:42;;;;;;;29.65;13.68;;;;;;;;;;5036226;28;20356;-78
2021/12/28 11:00:44;;;;;;;26.02;13.45;;;;;;;;;;5034271;28;20076;-77
2021/12/28 11:03:32;;;;;;;28.58;13.50;;;;;;;;;;4974224;28;20031;-77
2021/12/28 11:06:00;;;;;;;29.58;12.85;;;;;;;;;;4974220;28;20498;-77
2021/12/28 11:08:28;;;;;;;29.38;13.52;;;;;;;;;;4973740;28;20035;-77
2021/12/28 11:10:56;;;;;;;30.60;13.55;;;;;;;;;;4973912;28;20469;-77
2021/12/28 11:13:23;;;;;;;30.75;11.80;;;;;;;;;;4964266;28;20039;-78
2021/12/28 11:15:49;;;;;;;30.67;13.93;;;;;;;;;;4975096;28;20027;-77
2021/12/28 11:18:30;;;;;;;31.80;14.13;;;;;;;;;;4974134;28;20117;-77
2021/12/28 11:20:57;;;;;;;28.08;12.85;;;;;;;;;;4974724;28;20031;-78
2021/12/28 11:23:25;;;;;;;26.60;12.90;;;;;;;;;;4976061;28;20069;-78
2021/12/28 11:26:02;;;;;;;27.45;14.18;;;;;;;;;;4973332;28;20077;-77
2021/12/28 11:28:29;;;;;;;29.60;13.25;;;;;;;;;;4969208;28;20026;-79
2021/12/28 11:30:58;;;;;;;31.98;13.55;;;;;;;;;;4975525;28;20042;-78
2021/12/28 11:33:24;;;;;;;27.92;13.38;;;;;;;;;;4972794;28;20113;-77
2021/12/28 11:35:50;;;;;;;25.58;12.20;;;;;;;;;;4973423;28;20034;-78
2021/12/28 11:38:16;;;;;;;29.27;12.50;;;;;;;;;;5032025;28;20308;-77
2021/12/28 11:40:42;;;;;;;28.08;13.18;;;;;;;;;;5032386;28;20029;-79
2021/12/28 11:43:08;;;;;;;26.50;12.38;;;;;;;;;;5033771;28;20475;-79
2021/12/28 11:45:34;;;;;;;26.17;12.23;;;;;;;;;;5035701;28;20041;-78
2021/12/28 11:48:00;;;;;;;26.50;12.13;;;;;;;;;;5032738;28;20036;-78
2021/12/28 11:50:26;;;;;;;25.63;13.80;;;;;;;;;;5033362;28;20029;-77
2021/12/28 11:52:52;;;;;;;30.63;13.57;;;;;;;;;;5035428;28;20109;-78
2021/12/28 11:55:19;;;;;;;28.50;13.15;;;;;;;;;;5039294;28;20033;-79
2021/12/28 11:57:52;;;;;;;27.00;13.38;;;;;;;;;;5034734;28;20025;-78
2021/12/28 12:00:21;;;;;;;24.05;11.40;;;;;;;;;;5034216;28;20039;-78
2021/12/28 12:02:49;;;;;;;25.92;12.43;;;;;;;;;;5037772;28;20025;-78
2021/12/28 12:05:17;;;;;;;25.67;11.88;;;;;;;;;;5028997;28;20033;-78
2021/12/28 12:07:43;;;;;;;23.60;12.30;;;;;;;;;;5034405;28;20677;-78
2021/12/28 12:10:13;;;;;;;22.75;11.23;;;;;;;;;;5032943;28;20038;-77
2021/12/28 12:12:45;;;;;;;24.27;12.63;;;;;;;;;;5033459;28;20029;-77
2021/12/28 12:15:12;;;;;;;26.87;12.30;;;;;;;;;;5032589;28;20455;-78
2021/12/28 12:17:39;;;;;;;25.00;11.68;;;;;;;;;;5031922;28;20284;-79
2021/12/28 12:20:06;;;;;;;27.33;11.75;;;;;;;;;;5030026;28;20021;-77
2021/12/28 12:22:36;;;;;;;20.20;11.45;;;;;;;;;;5029681;28;20036;-76
2021/12/28 12:25:05;;;;;;;26.90;12.85;;;;;;;;;;5029305;28;20033;-77
2021/12/28 12:27:48;;;;;;;26.00;12.57;;;;;;;;;;5029988;28;20044;-79
2021/12/28 12:30:17;;;;;;;22.63;11.32;;;;;;;;;;5031787;28;20464;-79
2021/12/28 12:32:56;;;;;;;25.80;12.30;;;;;;;;;;5034879;28;20195;-79
2021/12/28 12:35:34;;;;;;;21.55;9.98;;;;;;;;;;5032221;28;20047;-76
2021/12/28 12:38:20;;;;;;;22.83;11.63;;;;;;;;;;5030461;28;20045;-76
2021/12/28 12:40:57;;;;;;;25.08;12.63;;;;;;;;;;5032638;28;20029;-77
2021/12/28 12:43:24;;;;;;;25.42;12.00;;;;;;;;;;5034210;28;20017;-76
2021/12/28 12:45:53;;;;;;;26.75;13.65;;;;;;;;;;5033547;28;20024;-77
2021/12/28 12:48:31;;;;;;;28.60;14.40;;;;;;;;;;5018075;28;20125;-77
2021/12/28 12:51:16;;;;;;;31.88;13.88;;;;;;;;;;5033248;28;20086;-76
2021/12/28 12:53:47;;;;;;;25.77;13.00;;;;;;;;;;5035570;28;20101;-77
2021/12/28 12:56:14;;;;;;;28.80;13.93;;;;;;;;;;5034866;28;20032;-76
2021/12/28 12:58:41;;;;;;;30.45;14.35;;;;;;;;;;5034740;28;20030;-77
2021/12/28 13:01:18;;;;;;;26.65;14.23;;;;;;;;;;5033919;28;20053;-78
2021/12/28 13:03:44;;;;;;;29.48;13.68;;;;;;;;;;5034816;28;20058;-78
2021/12/28 13:06:10;;;;;;;24.77;13.00;;;;;;;;;;5033628;28;20108;-77
2021/12/28 13:08:36;;;;;;;22.65;11.35;;;;;;;;;;5031330;28;20079;-76
2021/12/28 13:11:02;;;;;;;28.40;13.88;;;;;;;;;;5032207;28;20036;-78
2021/12/28 13:13:28;;;;;;;25.08;13.55;;;;;;;;;;5031104;28;20033;-77
2021/12/28 13:15:55;;;;;;;28.27;13.02;;;;;;;;;;5031175;28;20037;-77
2021/12/28 13:18:21;;;;;;;27.90;13.40;;;;;;;;;;5032172;28;20105;-77
2021/12/28 13:20:49;;;;;;;28.20;13.13;;;;;;;;;;5031386;28;20030;-76
2021/12/28 13:23:15;;;;;;;26.33;12.90;;;;;;;;;;5031597;28;20044;-78
2021/12/28 13:25:44;;;;;;;25.30;12.52;;;;;;;;;;5032932;28;20556;-77
2021/12/28 13:28:12;;;;;;;26.70;15.45;;;;;;;;;;5033203;28;20013;-78
2021/12/28 13:30:39;;;;;;;30.02;13.93;;;;;;;;;;5033294;28;20025;-78
2021/12/28 13:33:06;;;;;;;24.85;11.63;;;;;;;;;;5031649;28;20049;-77
2021/12/28 13:35:35;;;;;;;27.02;12.60;;;;;;;;;;5035908;28;20133;-78
2021/12/28 13:38:03;;;;;;;25.38;12.27;;;;;;;;;;5030882;28;20112;-77
2021/12/28 13:40:35;;;;;;;26.63;12.38;;;;;;;;;;5037453;28;20028;-78
2021/12/28 13:43:01;;;;;;;24.20;11.25;;;;;;;;;;5049833;28;20021;-77
2021/12/28 13:45:33;;;;;;;19.60;10.88;;;;;;;;;;5048097;28;20029;-78
2021/12/28 13:48:00;;;;;;;23.73;11.05;;;;;;;;;;5047608;28;20002;-77
2021/12/28 13:50:27;;;;;;;27.08;12.30;;;;;;;;;;5038547;28;20092;-78
2021/12/28 13:52:54;;;;;;;25.65;12.55;;;;;;;;;;5052882;28;20025;-79
2021/12/28 13:55:34;;;;;;;25.00;12.80;;;;;;;;;;5039240;28;20050;-77
2021/12/28 13:58:01;;;;;;;25.48;13.05;;;;;;;;;;5044152;28;20148;-76
2021/12/28 14:00:29;;;;;;;33.40;14.30;;;;;;;;;;5028355;28;20060;-76
2021/12/28 14:02:59;;;;;;;30.98;13.50;;;;;;;;;;5030692;28;20064;-76
2021/12/28 14:05:26;;;;;;;27.65;13.27;;;;;;;;;;5028809;28;20084;-77
2021/12/28 14:07:52;;;;;;;31.60;15.43;;;;;;;;;;5024909;28;20039;-76
2021/12/28 14:10:19;;;;;;;31.67;16.48;;;;;;;;;;5030206;28;20108;-76
2021/12/28 14:13:06;;;;;;;27.15;14.35;;;;;;;;;;5028769;28;20025;-76
2021/12/28 14:15:44;;;;;;;25.55;13.48;;;;;;;;;;5016959;28;20037;-76
2021/12/28 14:18:23;;;;;;;31.88;15.20;;;;;;;;;;5029364;28;20173;-77
2021/12/28 14:20:49;;;;;;;33.28;14.65;;;;;;;;;;5030358;28;20483;-76
2021/12/28 14:23:25;;;;;;;33.63;16.13;;;;;;;;;;5031308;28;20029;-76
2021/12/28 14:25:51;;;;;;;32.92;14.20;;;;;;;;;;5032068;28;20103;-77